EST,Max TemperatureF,Mean TemperatureF,Min TemperatureF,Max Dew PointF,MeanDew PointF,Min DewpointF,Max Humidity, Mean Humidity, Min Humidity, Max Sea Level PressureIn, Mean Sea Level PressureIn, Min Sea Level PressureIn, Max VisibilityMiles, Mean VisibilityMiles, Min VisibilityMiles, Max Wind SpeedMPH, Mean Wind SpeedMPH, Max Gust SpeedMPH,PrecipitationIn, CloudCover, Events, WindDirDegrees
2013-2-1,38,29,19,29,10,2,79,44,28,30.38,30.16,29.84,10,10,10,17,6,29,0.00,1,Snow,281
2013-2-2,39,26,14,28,15,10,92,59,33,30.38,30.22,30.02,10,10,10,12,2,16,0.00,4,,216
2013-2-3,48,37,27,30,25,20,94,62,39,30.01,29.93,29.83,10,10,10,15,4,24,0.00,6,,268
2013-2-4,46,34,22,27,22,17,89,59,36,30.14,30.04,29.96,10,10,10,8,2,,0.00,1,,222
2013-2-5,60,48,35,34,30,27,84,59,36,29.97,29.93,29.87,10,10,10,14,5,22,0.00,4,,241
2013-2-6,58,43,28,35,28,23,96,64,25,30.28,30.13,29.97,10,10,7,7,1,,0.00,0,,279
2013-2-7,42,35,28,36,32,26,97,82,64,30.36,30.25,30.07,10,8,2,7,3,,0.37,6,Rain,36
2013-2-8,58,46,35,44,35,26,98,74,38,30.07,29.94,29.83,10,9,2,12,5,23,0.05,5,Rain,333
2013-2-9,53,39,25,26,19,9,88,52,17,30.35,30.24,30.06,10,10,10,8,3,16,0.00,0,,324
2013-2-10,52,36,20,40,24,19,97,65,28,30.48,30.35,30.19,10,10,7,9,1,,0.04,2,Rain,163
2013-2-11,54,47,40,54,46,40,100,98,82,30.19,30.02,29.92,10,5,1,9,1,16,0.03,6,Rain,237
2013-2-12,59,46,34,43,29,22,89,49,24,30.08,30.00,29.93,10,10,7,12,3,18,0.01,2,Rain,254
2013-2-13,45,39,33,45,42,32,100,96,79,29.96,29.77,29.64,10,7,1,8,1,17,0.12,7,Rain,241
2013-2-14,53,40,26,33,30,26,99,75,38,30.06,29.98,29.85,10,10,7,9,1,,0.00,0,,226
2013-2-15,61,44,27,36,31,26,97,65,31,30.09,30.01,29.91,10,10,5,12,3,20,0.00,2,,253
2013-2-16,41,36,29,33,25,12,89,64,41,29.99,29.92,29.83,10,10,7,9,3,18,0.00,5,Rain-Snow,339
2013-2-17,37,28,16,15,7,2,82,44,25,30.25,30.09,29.94,10,10,10,14,5,30,0.00,0,,294
2013-2-18,53,32,11,24,18,10,92,55,28,30.38,30.29,30.19,10,10,10,12,3,16,0.00,0,,203
2013-2-19,46,40,34,42,32,17,98,73,38,30.19,30.00,29.86,10,9,2,10,6,16,0.04,4,Rain,221
2013-2-20,52,42,31,17,11,5,50,31,15,30.16,30.05,29.98,10,10,10,16,7,24,0.00,0,,277
2013-2-21,54,37,20,28,17,13,83,49,21,30.27,30.17,30.11,10,10,10,5,0,,0.00,0,,30
2013-2-22,41,36,31,34,31,21,99,86,44,30.33,30.25,30.13,10,7,2,4,0,,0.07,8,Rain-Snow,40
2013-2-23,47,40,34,43,38,34,99,95,82,30.15,29.96,29.82,10,7,1,7,0,,0.13,7,Rain,22
2013-2-24,60,48,36,43,31,20,100,59,21,30.05,29.92,29.81,10,8,0,12,4,20,0.00,2,Fog,285
2013-2-25,41,34,27,25,23,20,84,64,46,30.22,30.15,30.06,10,10,10,6,1,,0.00,0,,56
2013-2-26,38,34,30,39,33,24,100,91,66,30.15,29.85,29.60,10,6,1,10,3,17,0.63,8,Rain-Snow,32
2013-2-27,56,46,37,42,37,33,100,78,44,29.78,29.71,29.63,10,8,2,10,5,17,0.04,5,Rain,246
2013-2-28,49,41,33,38,29,25,86,62,40,29.87,29.77,29.70,10,10,10,15,5,22,0.00,6,,277